createdAt,value
2023-04-28T00:00:19.125Z,101179.81
2023-04-28T00:02:48.005Z,101182.25
2023-04-28T00:05:14.749Z,101191.53
2023-04-28T00:07:41.312Z,101189.41
2023-04-28T00:10:08.456Z,101187.28
2023-04-28T00:12:35.070Z,101180.81
2023-04-28T00:15:03.813Z,101175.19
2023-04-28T00:17:31.006Z,101168.56
2023-04-28T00:19:57.681Z,101169.88
2023-04-28T00:22:24.099Z,101164.22
2023-04-28T00:24:50.723Z,101158.66
2023-04-28T00:27:17.866Z,101150.31
2023-04-28T00:29:44.348Z,101150.78
2023-04-28T00:32:10.895Z,101147.03
2023-04-28T00:34:37.367Z,101151.38
2023-04-28T00:37:04.468Z,101140.72
2023-04-28T00:39:30.873Z,101148.94
2023-04-28T00:41:57.750Z,101143.44
2023-04-28T00:44:24.152Z,101136.66
2023-04-28T00:46:50.768Z,101138.47
2023-04-28T00:49:17.164Z,101140.19
2023-04-28T00:51:43.683Z,101132.69
2023-04-28T00:54:14.420Z,101126.88
2023-04-28T00:56:41.109Z,101122.31
2023-04-28T00:59:07.613Z,101125.59
2023-04-28T01:01:35.103Z,101122.72
2023-04-28T01:04:02.526Z,101117.16
2023-04-28T01:06:30.768Z,101114.03
2023-04-28T01:08:59.924Z,101104.75
2023-04-28T01:11:26.680Z,101106.75
2023-04-28T01:14:03.658Z,101112.63
2023-04-28T01:16:35.473Z,101108.72
2023-04-28T01:19:02.876Z,101102.56
2023-04-28T01:21:34.481Z,101103.22
2023-04-28T01:24:09.397Z,101098.63
2023-04-28T01:26:35.913Z,101100.00
2023-04-28T01:29:02.503Z,101093.69
2023-04-28T01:31:33.025Z,101097.47
2023-04-28T01:34:00.206Z,101101.97
2023-04-28T01:36:28.464Z,101096.50
2023-04-28T01:38:55.382Z,101099.19
2023-04-28T01:41:22.324Z,101086.88
2023-04-28T01:43:49.031Z,101079.75
2023-04-28T01:46:15.636Z,101079.69
2023-04-28T01:48:42.189Z,101073.94
2023-04-28T01:51:08.599Z,101069.09
2023-04-28T01:53:38.177Z,101059.66
2023-04-28T01:56:04.820Z,101061.81
2023-04-28T01:58:31.385Z,101061.81
2023-04-28T02:00:58.638Z,101063.13
2023-04-28T02:03:25.573Z,101053.22
2023-04-28T02:05:52.350Z,101052.66
2023-04-28T02:08:18.807Z,101047.22
2023-04-28T02:10:45.522Z,101048.53
2023-04-28T02:13:12.092Z,101040.66
2023-04-28T02:15:42.690Z,101035.66
2023-04-28T02:18:10.437Z,101036.41
2023-04-28T02:20:39.659Z,101030.00
2023-04-28T02:23:07.835Z,101036.41
2023-04-28T02:25:34.472Z,101029.69
2023-04-28T02:28:00.940Z,101022.56
2023-04-28T02:30:27.462Z,101022.91
2023-04-28T02:32:55.736Z,101020.75
2023-04-28T02:35:22.164Z,101011.91
2023-04-28T02:37:48.954Z,101012.16
2023-04-28T02:40:15.444Z,101017.19
2023-04-28T02:42:41.895Z,101007.81
2023-04-28T02:45:08.485Z,101010.50
2023-04-28T02:47:34.963Z,101012.16
2023-04-28T02:50:02.802Z,101014.09
2023-04-28T02:52:29.309Z,100998.88
2023-04-28T02:54:57.448Z,100994.84
2023-04-28T02:57:24.992Z,100991.81
2023-04-28T02:59:51.433Z,100992.78
2023-04-28T03:02:18.026Z,100984.59
2023-04-28T03:04:44.499Z,100992.78
2023-04-28T03:07:11.333Z,100975.03
2023-04-28T03:09:37.806Z,100973.38
2023-04-28T03:12:04.470Z,100979.88
2023-04-28T03:14:32.492Z,100981.66
2023-04-28T03:16:59.038Z,100963.81
2023-04-28T03:19:26.461Z,100975.13
2023-04-28T03:21:53.042Z,100970.91
2023-04-28T03:24:19.463Z,100967.97
2023-04-28T03:26:46.022Z,100965.28
2023-04-28T03:29:12.598Z,100963.88
2023-04-28T03:31:39.128Z,100960.91
2023-04-28T03:34:05.792Z,100956.69
2023-04-28T03:36:33.043Z,100946.84
2023-04-28T03:39:07.562Z,100948.06
2023-04-28T03:41:34.340Z,100943.72
2023-04-28T03:44:26.789Z,100947.31
2023-04-28T03:46:53.325Z,100939.13
2023-04-28T03:49:19.697Z,100939.72
2023-04-28T03:51:46.607Z,100922.03
2023-04-28T03:54:13.540Z,100924.09
2023-04-28T03:56:41.340Z,100920.97
2023-04-28T03:59:07.837Z,100912.59
2023-04-28T04:01:34.464Z,100918.50
2023-04-28T04:04:01.324Z,100918.59
2023-04-28T04:06:27.984Z,100918.75
2023-04-28T04:08:54.757Z,100915.97
2023-04-28T04:11:21.231Z,100912.19
2023-04-28T04:13:47.902Z,100902.63
2023-04-28T04:16:16.689Z,100904.59
2023-04-28T04:18:43.218Z,100911.38
2023-04-28T04:21:16.256Z,100908.28
2023-04-28T04:23:42.651Z,100900.91
2023-04-28T04:26:09.171Z,100898.69
2023-04-28T04:28:36.413Z,100890.16
2023-04-28T04:31:05.024Z,100886.00
2023-04-28T04:33:32.041Z,100889.13
2023-04-28T04:35:58.758Z,100891.81
2023-04-28T04:38:25.357Z,100887.22
2023-04-28T04:40:53.408Z,100886.72
2023-04-28T04:43:19.888Z,100886.06
2023-04-28T04:45:49.523Z,100885.66
2023-04-28T04:48:16.847Z,100899.19
2023-04-28T04:50:44.420Z,100879.44
2023-04-28T04:53:14.686Z,100883.69
2023-04-28T04:55:43.257Z,100888.38
2023-04-28T04:58:09.974Z,100891.09
2023-04-28T05:00:42.261Z,100885.94
2023-04-28T05:03:10.527Z,100875.00
2023-04-28T05:05:40.023Z,100872.25
2023-04-28T05:08:13.026Z,100870.88
2023-04-28T05:10:40.327Z,100871.94
2023-04-28T05:13:07.231Z,100864.94
2023-04-28T05:15:33.986Z,100865.78
2023-04-28T05:18:14.857Z,100867.72
2023-04-28T05:20:41.352Z,100858.97
2023-04-28T05:23:08.059Z,100859.69
2023-04-28T05:25:34.720Z,100860.56
2023-04-28T05:28:07.200Z,100863.56
2023-04-28T05:30:34.223Z,100861.50
2023-04-28T05:33:01.059Z,100858.34
2023-04-28T05:35:27.808Z,100861.00
2023-04-28T05:37:54.261Z,100868.06
2023-04-28T05:40:20.953Z,100859.53
2023-04-28T05:42:47.417Z,100858.66
2023-04-28T05:45:14.277Z,100861.84
2023-04-28T05:47:41.308Z,100851.13
2023-04-28T05:50:08.259Z,100847.09
2023-04-28T05:52:34.836Z,100854.56
2023-04-28T05:55:02.419Z,100851.56
2023-04-28T05:57:31.978Z,100853.53
2023-04-28T06:00:00.680Z,100848.78
2023-04-28T06:02:28.171Z,100839.00
2023-04-28T06:04:56.206Z,100835.09
2023-04-28T06:07:22.947Z,100838.16
2023-04-28T06:09:49.870Z,100834.81
2023-04-28T06:12:16.595Z,100833.19
2023-04-28T06:14:43.005Z,100835.19
2023-04-28T06:17:09.499Z,100830.56
2023-04-28T06:19:36.111Z,100829.19
2023-04-28T06:22:02.646Z,100837.19
2023-04-28T06:24:29.409Z,100839.91
2023-04-28T06:26:57.778Z,100845.41
2023-04-28T06:29:24.222Z,100842.72
2023-04-28T06:31:52.805Z,100844.34
2023-04-28T06:34:19.456Z,100845.16
2023-04-28T06:36:45.982Z,100843.53
2023-04-28T06:39:12.769Z,100837.34
2023-04-28T06:41:39.295Z,100831.94
2023-04-28T06:44:05.953Z,100840.16
2023-04-28T06:46:34.222Z,100842.16
2023-04-28T06:49:00.886Z,100816.41
2023-04-28T06:51:28.733Z,100823.50
2023-04-28T06:53:55.648Z,100822.66
2023-04-28T06:56:22.157Z,100824.06
2023-04-28T06:58:48.612Z,100821.16
2023-04-28T07:01:15.132Z,100815.44
2023-04-28T07:03:41.666Z,100820.63
2023-04-28T07:06:08.574Z,100822.53
2023-04-28T07:08:35.802Z,100820.09
2023-04-28T07:11:06.239Z,100816.31
2023-04-28T07:13:33.296Z,100823.06
2023-04-28T07:15:59.864Z,100825.53
2023-04-28T07:18:26.413Z,100827.44
2023-04-28T07:20:53.146Z,100814.72
2023-04-28T07:23:19.575Z,100821.78
2023-04-28T07:25:45.980Z,100816.06
2023-04-28T07:28:13.788Z,100811.97
2023-04-28T07:30:40.398Z,100807.34
2023-04-28T07:33:06.874Z,100811.41
2023-04-28T07:35:33.498Z,100815.75
2023-04-28T07:38:00.003Z,100804.84
2023-04-28T07:40:27.482Z,100808.41
2023-04-28T07:42:54.247Z,100803.75
2023-04-28T07:45:20.873Z,100801.88
2023-04-28T07:47:47.304Z,100802.69
2023-04-28T07:50:13.836Z,100796.16
2023-04-28T07:52:40.478Z,100796.69
2023-04-28T07:55:07.464Z,100799.38
2023-04-28T07:57:33.969Z,100787.66
2023-04-28T08:00:00.787Z,100790.13
2023-04-28T08:02:38.344Z,100788.97
2023-04-28T08:05:07.012Z,100781.28
2023-04-28T08:07:33.590Z,100780.22
2023-04-28T08:10:01.056Z,100784.25
2023-04-28T08:12:27.580Z,100784.53
2023-04-28T08:14:54.051Z,100777.94
2023-04-28T08:17:20.463Z,100771.38
2023-04-28T08:19:47.491Z,100773.94
2023-04-28T08:22:13.971Z,100773.88
2023-04-28T08:24:40.590Z,100762.31
2023-04-28T08:27:07.259Z,100770.47
2023-04-28T08:29:33.831Z,100769.91
2023-04-28T08:32:02.332Z,100769.66
2023-04-28T08:34:29.290Z,100779.19
2023-04-28T08:36:55.827Z,100783.28
2023-04-28T08:39:23.502Z,100778.06
2023-04-28T08:41:50.594Z,100778.56
2023-04-28T08:44:17.735Z,100780.63
2023-04-28T08:46:46.182Z,100778.75
2023-04-28T08:49:17.903Z,100773.44
2023-04-28T08:51:47.692Z,100775.91
2023-04-28T08:54:29.545Z,100762.50
2023-04-28T08:56:57.618Z,100762.47
2023-04-28T08:59:24.515Z,100765.47
2023-04-28T09:01:51.424Z,100767.63
2023-04-28T09:04:19.002Z,100760.28
2023-04-28T09:06:46.462Z,100757.59
2023-04-28T09:09:22.894Z,100756.25
2023-04-28T09:12:01.208Z,100746.72
2023-04-28T09:14:29.402Z,100748.13
2023-04-28T09:16:56.680Z,100745.69
2023-04-28T09:19:23.585Z,100753.00
2023-04-28T09:21:53.085Z,100751.84
2023-04-28T09:24:26.955Z,100750.31
2023-04-28T09:26:55.474Z,100750.06
2023-04-28T09:29:22.680Z,100749.03
2023-04-28T09:31:49.451Z,100743.31
2023-04-28T09:34:16.207Z,100746.03
2023-04-28T09:36:42.989Z,100747.56
2023-04-28T09:39:09.484Z,100745.84
2023-04-28T09:41:41.475Z,100749.72
2023-04-28T09:44:19.702Z,100749.00
2023-04-28T09:46:47.036Z,100756.91
2023-04-28T09:49:14.203Z,100753.03
2023-04-28T09:51:41.439Z,100753.19
2023-04-28T09:54:08.035Z,100755.09
2023-04-28T09:56:40.877Z,100747.16
2023-04-28T09:59:08.054Z,100738.34
2023-04-28T10:01:40.977Z,100741.31
2023-04-28T10:04:09.274Z,100734.50
2023-04-28T10:06:36.762Z,100738.31
2023-04-28T10:09:03.862Z,100743.66
2023-04-28T10:11:30.798Z,100731.00
2023-04-28T10:13:57.285Z,100731.91
2023-04-28T10:16:24.499Z,100734.75
2023-04-28T10:18:52.744Z,100733.78
2023-04-28T10:21:22.434Z,100728.22
2023-04-28T10:24:15.003Z,100740.84
2023-04-28T10:27:05.521Z,100738.19
2023-04-28T10:29:36.121Z,100740.06
2023-04-28T10:32:19.254Z,100730.19
2023-04-28T10:34:45.881Z,100732.34
2023-04-28T10:37:14.904Z,100716.13
2023-04-28T10:40:02.568Z,100713.38
2023-04-28T10:42:51.610Z,100720.34
2023-04-28T10:45:56.202Z,100711.09
2023-04-28T10:48:49.273Z,100708.78
2023-04-28T10:51:15.722Z,100704.13
2023-04-28T10:53:45.473Z,100699.88
2023-04-28T10:56:13.077Z,100691.34
2023-04-28T10:58:44.967Z,100694.81
2023-04-28T11:01:21.555Z,100693.91
2023-04-28T11:04:08.512Z,100683.03
2023-04-28T11:06:42.309Z,100688.59
2023-04-28T11:09:14.973Z,100690.34
2023-04-28T11:12:10.705Z,100674.28
2023-04-28T11:14:40.239Z,100684.13
2023-04-28T11:17:13.208Z,100678.75
2023-04-28T11:19:45.272Z,100674.41
2023-04-28T11:22:16.845Z,100674.19
2023-04-28T11:25:04.060Z,100667.41
2023-04-28T11:27:32.790Z,100671.25
2023-04-28T11:30:00.179Z,100669.84
2023-04-28T11:32:33.841Z,100665.75
2023-04-28T11:35:02.444Z,100664.78
2023-04-28T11:37:28.810Z,100670.84
2023-04-28T11:39:55.356Z,100665.78
2023-04-28T11:42:21.826Z,100667.06
2023-04-28T11:44:52.847Z,100665.53
2023-04-28T11:47:30.178Z,100666.53
2023-04-28T11:49:56.982Z,100673.66
2023-04-28T11:52:23.668Z,100666.84
2023-04-28T11:54:55.388Z,100664.00
2023-04-28T11:57:23.317Z,100664.59
2023-04-28T11:59:50.787Z,100661.56
2023-04-28T12:02:29.110Z,100665.06
2023-04-28T12:04:56.333Z,100670.88
2023-04-28T12:07:23.607Z,100670.72
2023-04-28T12:10:13.036Z,100659.28
2023-04-28T12:12:50.619Z,100651.50
2023-04-28T12:15:20.802Z,100648.84
2023-04-28T12:17:48.692Z,100639.03
2023-04-28T12:20:39.305Z,100633.91
2023-04-28T12:23:07.935Z,100626.31
2023-04-28T12:25:43.599Z,100629.91
2023-04-28T12:28:10.674Z,100633.66
2023-04-28T12:30:43.941Z,100638.53
2023-04-28T12:33:27.414Z,100632.34
2023-04-28T12:35:55.150Z,100633.34
2023-04-28T12:38:22.285Z,100630.34
2023-04-28T12:40:48.874Z,100620.63
2023-04-28T12:43:15.451Z,100625.34
2023-04-28T12:45:41.962Z,100621.28
2023-04-28T12:48:08.405Z,100622.44
2023-04-28T12:50:35.325Z,100615.16
2023-04-28T12:53:02.460Z,100615.16
2023-04-28T12:55:29.365Z,100609.78
2023-04-28T12:57:55.825Z,100606.75
2023-04-28T13:00:23.206Z,100615.25
2023-04-28T13:02:50.037Z,100604.50
2023-04-28T13:05:16.824Z,100603.91
2023-04-28T13:07:43.285Z,100594.88
2023-04-28T13:10:10.233Z,100605.63
2023-04-28T13:12:36.757Z,100603.09
2023-04-28T13:15:04.115Z,100601.19
2023-04-28T13:17:30.716Z,100596.81
2023-04-28T13:19:57.187Z,100588.81
2023-04-28T13:22:23.603Z,100585.88
2023-04-28T13:24:50.670Z,100589.72
2023-04-28T13:27:17.272Z,100589.00
2023-04-28T13:29:43.680Z,100586.47
2023-04-28T13:32:10.490Z,100588.50
2023-04-28T13:34:38.071Z,100588.19
2023-04-28T13:37:04.569Z,100572.50
2023-04-28T13:39:31.589Z,100585.06
2023-04-28T13:41:58.045Z,100583.44
2023-04-28T13:44:24.522Z,100579.47
2023-04-28T13:46:51.163Z,100579.50
2023-04-28T13:49:17.766Z,100576.75
2023-04-28T13:51:45.592Z,100577.16
2023-04-28T13:54:12.229Z,100572.69
2023-04-28T13:56:38.652Z,100566.72
2023-04-28T13:59:05.181Z,100570.69
2023-04-28T14:01:31.706Z,100576.47
2023-04-28T14:03:58.328Z,100575.53
2023-04-28T14:06:25.034Z,100567.25
2023-04-28T14:08:52.521Z,100564.91
2023-04-28T14:11:18.916Z,100566.75
2023-04-28T14:13:45.367Z,100566.84
2023-04-28T14:16:11.983Z,100571.69
2023-04-28T14:18:38.631Z,100563.69
2023-04-28T14:21:08.021Z,100568.66
2023-04-28T14:23:35.609Z,100561.69
2023-04-28T14:26:02.744Z,100562.28
2023-04-28T14:28:29.279Z,100556.41
2023-04-28T14:30:55.963Z,100553.63
2023-04-28T14:33:22.394Z,100541.16
2023-04-28T14:35:48.805Z,100535.97
2023-04-28T14:38:15.264Z,100532.03
2023-04-28T14:40:42.948Z,100519.22
2023-04-28T14:43:09.481Z,100508.38
2023-04-28T14:45:37.502Z,100495.28
2023-04-28T14:48:04.310Z,100501.22
2023-04-28T14:50:30.813Z,100503.91
2023-04-28T14:53:00.234Z,100502.66
2023-04-28T14:55:28.030Z,100508.69
2023-04-28T14:57:54.651Z,100512.69
2023-04-28T15:00:21.038Z,100508.97
2023-04-28T15:02:47.718Z,100507.50
2023-04-28T15:05:14.174Z,100502.22
2023-04-28T15:07:40.826Z,100497.59
2023-04-28T15:10:07.917Z,100499.09
2023-04-28T15:12:35.369Z,100492.63
2023-04-28T15:15:02.499Z,100487.78
2023-04-28T15:17:29.067Z,100490.69
2023-04-28T15:19:55.685Z,100492.00
2023-04-28T15:22:22.097Z,100486.97
2023-04-28T15:24:48.887Z,100489.38
2023-04-28T15:27:15.629Z,100488.44
2023-04-28T15:29:42.098Z,100474.03
2023-04-28T15:32:08.640Z,100481.22
2023-04-28T15:34:35.365Z,100478.03
2023-04-28T15:37:39.259Z,100479.34
2023-04-28T15:40:06.303Z,100471.06
2023-04-28T15:42:32.910Z,100465.19
2023-04-28T15:44:59.677Z,100466.19
2023-04-28T15:47:26.100Z,100474.69
2023-04-28T15:49:52.690Z,100471.38
2023-04-28T15:52:19.195Z,100460.44
2023-04-28T15:54:46.471Z,100467.50
2023-04-28T15:57:12.878Z,100470.03
2023-04-28T15:59:39.392Z,100474.16
2023-04-28T16:02:06.519Z,100471.00
2023-04-28T16:04:33.222Z,100474.03
2023-04-28T16:07:02.542Z,100481.34
2023-04-28T16:09:29.708Z,100475.91
2023-04-28T16:11:59.273Z,100486.09
2023-04-28T16:14:26.801Z,100483.16
2023-04-28T16:16:53.242Z,100484.94
2023-04-28T16:19:19.686Z,100479.06
2023-04-28T16:21:46.138Z,100473.09
2023-04-28T16:24:12.874Z,100478.38
2023-04-28T16:26:39.274Z,100476.63
2023-04-28T16:29:05.911Z,100476.13
2023-04-28T16:31:33.853Z,100472.69
2023-04-28T16:34:00.477Z,100479.22
2023-04-28T16:36:33.131Z,100472.97
2023-04-28T16:38:59.603Z,100477.75
2023-04-28T16:41:26.083Z,100472.50
2023-04-28T16:43:52.853Z,100471.41
2023-04-28T16:46:19.316Z,100466.94
2023-04-28T16:48:45.748Z,100466.75
2023-04-28T16:51:12.255Z,100462.56
2023-04-28T16:53:39.127Z,100460.66
2023-04-28T16:56:10.247Z,100457.94
2023-04-28T16:58:37.141Z,100453.28
2023-04-28T17:01:03.865Z,100448.25
2023-04-28T17:03:30.895Z,100438.69
2023-04-28T17:05:57.490Z,100435.66
2023-04-28T17:08:23.940Z,100443.47
2023-04-28T17:10:50.633Z,100424.09
2023-04-28T17:13:17.010Z,100417.41
2023-04-28T17:15:43.677Z,100431.88
2023-04-28T17:18:10.109Z,100434.16
2023-04-28T17:20:38.137Z,100427.59
2023-04-28T17:23:04.610Z,100436.53
2023-04-28T17:25:31.412Z,100435.16
2023-04-28T17:27:59.521Z,100428.44
2023-04-28T17:30:26.086Z,100433.41
2023-04-28T17:32:52.718Z,100420.06
2023-04-28T17:35:19.211Z,100423.41
2023-04-28T17:37:45.762Z,100408.50
2023-04-28T17:40:12.910Z,100410.81
2023-04-28T17:42:39.336Z,100420.09
2023-04-28T17:45:07.352Z,100412.19
2023-04-28T17:47:34.067Z,100410.81
2023-04-28T17:50:00.616Z,100415.31
2023-04-28T17:52:27.521Z,100416.06
2023-04-28T17:54:54.297Z,100407.50
2023-04-28T17:57:21.209Z,100405.44
2023-04-28T17:59:51.027Z,100412.59
2023-04-28T18:02:20.331Z,100406.72
2023-04-28T18:04:46.921Z,100411.19
2023-04-28T18:07:13.370Z,100409.91
2023-04-28T18:09:39.802Z,100402.13
2023-04-28T18:12:06.912Z,100406.50
2023-04-28T18:14:33.918Z,100404.56
2023-04-28T18:17:00.422Z,100399.78
2023-04-28T18:19:28.541Z,100398.47
2023-04-28T18:21:56.683Z,100406.97
2023-04-28T18:24:24.217Z,100408.34
2023-04-28T18:26:50.719Z,100404.28
2023-04-28T18:29:18.709Z,100391.97
2023-04-28T18:31:45.520Z,100400.47
2023-04-28T18:34:12.048Z,100391.47
2023-04-28T18:36:38.452Z,100395.28
2023-04-28T18:39:06.178Z,100388.25
2023-04-28T18:41:34.516Z,100388.25
2023-04-28T18:44:01.940Z,100391.78
2023-04-28T18:46:29.270Z,100386.03
2023-04-28T18:48:56.380Z,100387.19
2023-04-28T18:51:22.889Z,100383.47
2023-04-28T18:53:49.563Z,100379.38
2023-04-28T18:56:16.557Z,100384.84
2023-04-28T18:58:42.945Z,100391.41
2023-04-28T19:01:13.997Z,100394.72
2023-04-28T19:03:40.727Z,100391.78
2023-04-28T19:06:07.407Z,100391.03
2023-04-28T19:08:33.995Z,100390.31
2023-04-28T19:11:00.508Z,100393.09
2023-04-28T19:13:26.896Z,100402.44
2023-04-28T19:15:57.023Z,100408.44
2023-04-28T19:18:23.457Z,100409.31
2023-04-28T19:20:52.454Z,100416.19
2023-04-28T19:23:18.900Z,100415.94
2023-04-28T19:25:45.514Z,100414.09
2023-04-28T19:28:11.922Z,100422.84
2023-04-28T19:30:38.426Z,100421.47
2023-04-28T19:33:04.914Z,100424.19
2023-04-28T19:35:31.583Z,100427.22
2023-04-28T19:37:58.114Z,100434.25
2023-04-28T19:40:26.162Z,100434.88
2023-04-28T19:42:52.840Z,100441.91
2023-04-28T19:45:19.215Z,100435.03
2023-04-28T19:47:45.668Z,100438.63
2023-04-28T19:50:12.279Z,100436.69
2023-04-28T19:52:38.718Z,100446.63
2023-04-28T19:55:06.221Z,100443.69
2023-04-28T19:57:32.736Z,100446.69
2023-04-28T19:59:59.406Z,100448.06
2023-04-28T20:02:26.414Z,100442.38
2023-04-28T20:04:53.039Z,100447.84
2023-04-28T20:07:19.589Z,100452.19
2023-04-28T20:09:46.184Z,100454.97
2023-04-28T20:12:12.634Z,100452.22
2023-04-28T20:14:39.035Z,100455.63
2023-04-28T20:17:07.371Z,100447.47
2023-04-28T20:19:34.830Z,100449.31
2023-04-28T20:22:07.666Z,100443.34
2023-04-28T20:24:35.240Z,100445.53
2023-04-28T20:27:03.721Z,100448.63
2023-04-28T20:29:34.218Z,100446.78
2023-04-28T20:32:02.774Z,100449.47
2023-04-28T20:34:29.374Z,100444.59
2023-04-28T20:36:57.910Z,100441.44
2023-04-28T20:39:24.301Z,100439.50
2023-04-28T20:41:51.580Z,100451.81
2023-04-28T20:44:18.340Z,100440.69
2023-04-28T20:46:45.374Z,100441.22
2023-04-28T20:49:12.493Z,100430.97
2023-04-28T20:51:45.010Z,100444.91
2023-04-28T20:54:13.717Z,100434.66
2023-04-28T20:56:41.861Z,100434.75
2023-04-28T20:59:08.437Z,100439.38
2023-04-28T21:01:34.890Z,100430.66
2023-04-28T21:04:03.430Z,100434.88
2023-04-28T21:06:29.938Z,100436.78
2023-04-28T21:08:56.376Z,100440.41
2023-04-28T21:11:22.791Z,100438.19
2023-04-28T21:13:50.601Z,100438.13
2023-04-28T21:16:20.875Z,100441.72
2023-04-28T21:18:48.972Z,100438.84
2023-04-28T21:21:15.739Z,100448.13
2023-04-28T21:23:42.670Z,100444.09
2023-04-28T21:26:10.077Z,100440.94
2023-04-28T21:28:37.088Z,100455.88
2023-04-28T21:31:04.372Z,100452.72
2023-04-28T21:33:32.114Z,100450.06
2023-04-28T21:35:58.554Z,100442.47
2023-04-28T21:38:25.800Z,100452.78
2023-04-28T21:40:52.458Z,100441.81
2023-04-28T21:43:19.920Z,100452.78
2023-04-28T21:45:46.552Z,100455.22
2023-04-28T21:48:13.128Z,100448.50
2023-04-28T21:50:39.803Z,100461.59
2023-04-28T21:53:06.241Z,100462.94
2023-04-28T21:55:32.762Z,100458.88
2023-04-28T21:58:00.468Z,100454.22
2023-04-28T22:00:27.965Z,100457.72
2023-04-28T22:02:56.263Z,100462.03
2023-04-28T22:05:24.680Z,100460.50
2023-04-28T22:07:52.096Z,100464.25
2023-04-28T22:10:19.212Z,100462.13
2023-04-28T22:12:47.790Z,100466.78
2023-04-28T22:15:14.278Z,100468.22
2023-04-28T22:17:40.783Z,100465.97
2023-04-28T22:20:08.474Z,100471.56
2023-04-28T22:22:35.029Z,100469.34
2023-04-28T22:25:02.049Z,100476.53
2023-04-28T22:27:30.284Z,100466.69
2023-04-28T22:29:58.534Z,100471.69
2023-04-28T22:32:26.102Z,100476.53
2023-04-28T22:34:53.014Z,100480.16
2023-04-28T22:37:19.495Z,100476.25
2023-04-28T22:39:45.887Z,100472.44
2023-04-28T22:42:12.288Z,100478.16
2023-04-28T22:44:38.677Z,100484.41
2023-04-28T22:47:05.085Z,100485.84
2023-04-28T22:49:31.776Z,100484.28
2023-04-28T22:51:58.620Z,100484.00
2023-04-28T22:54:25.065Z,100487.41
2023-04-28T22:56:53.390Z,100486.06
2023-04-28T22:59:19.992Z,100486.84
2023-04-28T23:01:46.643Z,100494.47
2023-04-28T23:04:13.391Z,100496.09
2023-04-28T23:06:39.892Z,100492.94
2023-04-28T23:09:06.970Z,100499.22
2023-04-28T23:11:33.446Z,100498.03
2023-04-28T23:13:59.950Z,100495.16
2023-04-28T23:16:26.405Z,100495.88
2023-04-28T23:18:53.013Z,100498.47
2023-04-28T23:21:19.446Z,100497.88
2023-04-28T23:23:46.256Z,100493.66
2023-04-28T23:26:12.703Z,100497.81
2023-04-28T23:28:39.106Z,100504.34
2023-04-28T23:31:05.695Z,100503.78
2023-04-28T23:33:32.224Z,100501.63
2023-04-28T23:35:58.630Z,100507.72
2023-04-28T23:38:26.275Z,100507.94
2023-04-28T23:40:53.030Z,100508.97
2023-04-28T23:43:19.488Z,100514.47
2023-04-28T23:45:45.979Z,100509.13
2023-04-28T23:48:12.481Z,100509.13
2023-04-28T23:50:38.913Z,100508.06
2023-04-28T23:53:05.342Z,100505.59
2023-04-28T23:55:32.001Z,100512.31
2023-04-28T23:57:58.493Z,100503.97
